Briefing drone pour Lamastre

Rechercher une autre localisation

Conditions de vol :


Nous sommes le : Mardi 26 octobre 2021
Il est 20:37 UTC (22:37 LT)

Lever de soleil : 05:45 UTC (07:45 LT)
Coucher de soleil : 17:05 UTC (19:05 LT)

Météo

L'essentiel des conditions de vol

VIGILANCE MÉTÉO FRANCE - Ardèche (07)
Pas de vigilances particulieres
METAR de LFLU
LFLU 261800Z AUTO 36009KT 9999 SCT056 13/09 Q1023

Date d'émission: 26/10/2021
Heure d'émission: 18:00 UTC
Vent: 360° pour 9 KT (17 km/h)
Visibilité horizontale: > 10 km
Plafond :
- Nuages épars à 5600ft (1707m)
Température: 13 °C
Point de rosée: 9 °C
Humidité: 77%
Pression (QNH): 1023 hPa
Prévision 24h pour Valence (16 km)
Vent : 323° pour 1 KT (2 km/h)
Temperature Maxi: 16 °C
Temperature Min: 16 °C
Humidité : 59%
Condition : Ciel dégagé



Warning: count(): Parameter must be an array or an object that implements Countable in /homepages/6/d509196549/htdocs/droneoxygene/briefing.php on line 743
WEBCAM POUR LAMASTRE

Réglementation

Voler en sécurité

CARTES AERONAUTIQUE 1/500.000
CARTES VAC (LFLU)
SUP AIP




Chargement des AIP...
NOTAM (LAMASTRE + Terrain à proximité / FIR )




Chargement des NOTAMS...
CONTACT PREFECTURE 07


Avertissement : Les données mises à disposition sont indicatives. Oxygène Drone ne pourra être tenu responsable de dégâts causés aux biens et aux personnes.